sensor_id;sensor_type;location;lat;lon;timestamp;temperature;humidity
16513;DHT22;8369;48.030;11.598;2024-03-08T00:00:43;1.40;99.90
16513;DHT22;8369;48.030;11.598;2024-03-08T00:03:09;1.30;99.90
16513;DHT22;8369;48.030;11.598;2024-03-08T00:05:36;1.30;99.90
16513;DHT22;8369;48.030;11.598;2024-03-08T00:08:02;1.30;99.90
16513;DHT22;8369;48.030;11.598;2024-03-08T00:10:28;1.30;99.90
16513;DHT22;8369;48.030;11.598;2024-03-08T00:12:56;1.30;99.90
16513;DHT22;8369;48.030;11.598;2024-03-08T00:15:23;1.30;99.90
16513;DHT22;8369;48.030;11.598;2024-03-08T00:17:49;1.30;99.90
16513;DHT22;8369;48.030;11.598;2024-03-08T00:20:16;1.20;99.90
16513;DHT22;8369;48.030;11.598;2024-03-08T00:22:43;1.20;99.90
16513;DHT22;8369;48.030;11.598;2024-03-08T00:25:09;1.20;99.90
16513;DHT22;8369;48.030;11.598;2024-03-08T00:27:36;1.20;99.90
16513;DHT22;8369;48.030;11.598;2024-03-08T00:30:02;1.20;99.90
16513;DHT22;8369;48.030;11.598;2024-03-08T00:32:28;1.20;99.90
16513;DHT22;8369;48.030;11.598;2024-03-08T00:34:54;1.10;99.90
16513;DHT22;8369;48.030;11.598;2024-03-08T00:37:21;1.10;99.90
16513;DHT22;8369;48.030;11.598;2024-03-08T00:39:51;1.10;99.90
16513;DHT22;8369;48.030;11.598;2024-03-08T00:42:17;1.10;99.90
16513;DHT22;8369;48.030;11.598;2024-03-08T00:44:43;1.10;99.90
16513;DHT22;8369;48.030;11.598;2024-03-08T00:47:11;1.10;99.90
16513;DHT22;8369;48.030;11.598;2024-03-08T00:49:37;1.10;99.90
16513;DHT22;8369;48.030;11.598;2024-03-08T00:52:06;1.10;99.90
16513;DHT22;8369;48.030;11.598;2024-03-08T00:54:33;1.00;99.90
16513;DHT22;8369;48.030;11.598;2024-03-08T00:56:59;1.00;99.90
16513;DHT22;8369;48.030;11.598;2024-03-08T00:59:29;1.00;99.90
16513;DHT22;8369;48.030;11.598;2024-03-08T01:01:54;1.00;99.90
16513;DHT22;8369;48.030;11.598;2024-03-08T01:04:21;1.00;99.90
16513;DHT22;8369;48.030;11.598;2024-03-08T01:06:48;1.00;99.90
16513;DHT22;8369;48.030;11.598;2024-03-08T01:09:20;1.00;99.90
16513;DHT22;8369;48.030;11.598;2024-03-08T01:11:47;1.00;99.90
16513;DHT22;8369;48.030;11.598;2024-03-08T01:14:14;1.00;99.90
16513;DHT22;8369;48.030;11.598;2024-03-08T01:16:39;1.00;99.90
16513;DHT22;8369;48.030;11.598;2024-03-08T01:19:05;0.90;99.90
16513;DHT22;8369;48.030;11.598;2024-03-08T01:21:31;0.90;99.90
16513;DHT22;8369;48.030;11.598;2024-03-08T01:23:57;0.90;99.90
16513;DHT22;8369;48.030;11.598;2024-03-08T01:26:22;0.90;99.90
16513;DHT22;8369;48.030;11.598;2024-03-08T01:28:49;0.90;99.90
16513;DHT22;8369;48.030;11.598;2024-03-08T01:31:16;0.90;99.90
16513;DHT22;8369;48.030;11.598;2024-03-08T01:33:42;0.90;99.90
16513;DHT22;8369;48.030;11.598;2024-03-08T01:36:08;0.90;99.90
16513;DHT22;8369;48.030;11.598;2024-03-08T01:38:34;0.90;99.90
16513;DHT22;8369;48.030;11.598;2024-03-08T01:40:59;0.80;99.90
16513;DHT22;8369;48.030;11.598;2024-03-08T01:43:27;0.80;99.90
16513;DHT22;8369;48.030;11.598;2024-03-08T01:45:57;0.80;99.90
16513;DHT22;8369;48.030;11.598;2024-03-08T01:48:27;0.80;99.90
16513;DHT22;8369;48.030;11.598;2024-03-08T01:50:58;0.80;99.90
16513;DHT22;8369;48.030;11.598;2024-03-08T01:53:24;0.80;99.90
16513;DHT22;8369;48.030;11.598;2024-03-08T01:55:55;0.80;99.90
16513;DHT22;8369;48.030;11.598;2024-03-08T01:58:22;0.70;99.90
16513;DHT22;8369;48.030;11.598;2024-03-08T02:00:48;0.70;99.90
16513;DHT22;8369;48.030;11.598;2024-03-08T02:03:15;0.70;99.90
16513;DHT22;8369;48.030;11.598;2024-03-08T02:05:41;0.70;99.90
16513;DHT22;8369;48.030;11.598;2024-03-08T02:08:08;0.70;99.90
16513;DHT22;8369;48.030;11.598;2024-03-08T02:10:38;0.70;99.90
16513;DHT22;8369;48.030;11.598;2024-03-08T02:13:04;0.70;99.90
16513;DHT22;8369;48.030;11.598;2024-03-08T02:16:03;0.60;99.90
16513;DHT22;8369;48.030;11.598;2024-03-08T02:18:30;0.60;99.90
16513;DHT22;8369;48.030;11.598;2024-03-08T02:21:01;0.60;99.90
16513;DHT22;8369;48.030;11.598;2024-03-08T02:23:30;0.60;99.90
16513;DHT22;8369;48.030;11.598;2024-03-08T02:25:56;0.50;99.90
16513;DHT22;8369;48.030;11.598;2024-03-08T02:28:23;0.50;99.90
16513;DHT22;8369;48.030;11.598;2024-03-08T02:30:50;0.50;99.90
16513;DHT22;8369;48.030;11.598;2024-03-08T02:33:22;0.50;99.90
16513;DHT22;8369;48.030;11.598;2024-03-08T02:35:49;0.50;99.90
16513;DHT22;8369;48.030;11.598;2024-03-08T02:38:20;0.40;99.90
16513;DHT22;8369;48.030;11.598;2024-03-08T02:40:47;0.40;99.90
16513;DHT22;8369;48.030;11.598;2024-03-08T02:43:14;0.40;99.90
16513;DHT22;8369;48.030;11.598;2024-03-08T02:45:41;0.40;99.90
16513;DHT22;8369;48.030;11.598;2024-03-08T02:48:11;0.40;99.90
16513;DHT22;8369;48.030;11.598;2024-03-08T02:50:37;0.30;99.90
16513;DHT22;8369;48.030;11.598;2024-03-08T02:53:05;0.30;99.90
16513;DHT22;8369;48.030;11.598;2024-03-08T02:55:31;0.30;99.90
16513;DHT22;8369;48.030;11.598;2024-03-08T02:57:57;0.30;99.90
16513;DHT22;8369;48.030;11.598;2024-03-08T03:00:23;0.30;99.90
16513;DHT22;8369;48.030;11.598;2024-03-08T03:02:50;0.30;99.90
16513;DHT22;8369;48.030;11.598;2024-03-08T03:05:23;0.20;99.90
16513;DHT22;8369;48.030;11.598;2024-03-08T03:07:50;0.20;99.90
16513;DHT22;8369;48.030;11.598;2024-03-08T03:10:17;0.20;99.90
16513;DHT22;8369;48.030;11.598;2024-03-08T03:12:44;0.20;99.90
16513;DHT22;8369;48.030;11.598;2024-03-08T03:15:13;0.20;99.90
16513;DHT22;8369;48.030;11.598;2024-03-08T03:17:39;0.20;99.90
16513;DHT22;8369;48.030;11.598;2024-03-08T03:20:09;0.20;99.90
16513;DHT22;8369;48.030;11.598;2024-03-08T03:22:38;0.10;99.90
16513;DHT22;8369;48.030;11.598;2024-03-08T03:25:04;0.10;99.90
16513;DHT22;8369;48.030;11.598;2024-03-08T03:27:32;0.10;99.90
16513;DHT22;8369;48.030;11.598;2024-03-08T03:29:58;0.10;99.90
16513;DHT22;8369;48.030;11.598;2024-03-08T03:32:44;0.10;99.90
16513;DHT22;8369;48.030;11.598;2024-03-08T03:35:13;0.10;99.90
16513;DHT22;8369;48.030;11.598;2024-03-08T03:37:40;0.00;99.90
16513;DHT22;8369;48.030;11.598;2024-03-08T03:40:09;0.10;99.90
16513;DHT22;8369;48.030;11.598;2024-03-08T03:42:35;0.10;99.90
16513;DHT22;8369;48.030;11.598;2024-03-08T03:45:01;0.00;99.90
16513;DHT22;8369;48.030;11.598;2024-03-08T03:47:28;0.00;99.90
16513;DHT22;8369;48.030;11.598;2024-03-08T03:49:53;0.00;99.90
16513;DHT22;8369;48.030;11.598;2024-03-08T03:52:19;0.00;99.90
16513;DHT22;8369;48.030;11.598;2024-03-08T03:54:45;0.00;99.90
16513;DHT22;8369;48.030;11.598;2024-03-08T03:57:11;0.00;99.90
16513;DHT22;8369;48.030;11.598;2024-03-08T03:59:38;0.00;99.90
16513;DHT22;8369;48.030;11.598;2024-03-08T04:02:03;-0.10;99.90
16513;DHT22;8369;48.030;11.598;2024-03-08T04:04:29;-0.10;99.90
16513;DHT22;8369;48.030;11.598;2024-03-08T04:06:55;-0.10;99.90
16513;DHT22;8369;48.030;11.598;2024-03-08T04:09:21;-0.10;99.90
16513;DHT22;8369;48.030;11.598;2024-03-08T04:11:48;-0.20;99.90
16513;DHT22;8369;48.030;11.598;2024-03-08T04:14:16;-0.20;99.90
16513;DHT22;8369;48.030;11.598;2024-03-08T04:16:41;-0.10;99.90
16513;DHT22;8369;48.030;11.598;2024-03-08T04:19:07;-0.20;99.90
16513;DHT22;8369;48.030;11.598;2024-03-08T04:21:35;-0.20;99.90
16513;DHT22;8369;48.030;11.598;2024-03-08T04:24:01;-0.20;99.90
16513;DHT22;8369;48.030;11.598;2024-03-08T04:26:26;-0.20;99.90
16513;DHT22;8369;48.030;11.598;2024-03-08T04:28:53;-0.20;99.90
16513;DHT22;8369;48.030;11.598;2024-03-08T04:31:19;-0.30;99.90
16513;DHT22;8369;48.030;11.598;2024-03-08T04:33:45;-0.30;99.90
16513;DHT22;8369;48.030;11.598;2024-03-08T04:36:11;-0.30;99.90
16513;DHT22;8369;48.030;11.598;2024-03-08T04:38:39;-0.30;99.90
16513;DHT22;8369;48.030;11.598;2024-03-08T04:41:07;-0.30;99.90
16513;DHT22;8369;48.030;11.598;2024-03-08T04:43:34;-0.20;99.90
16513;DHT22;8369;48.030;11.598;2024-03-08T04:45:59;-0.20;99.90
16513;DHT22;8369;48.030;11.598;2024-03-08T04:48:25;-0.20;99.90
16513;DHT22;8369;48.030;11.598;2024-03-08T04:50:55;-0.20;99.90
16513;DHT22;8369;48.030;11.598;2024-03-08T04:53:21;-0.20;99.90
16513;DHT22;8369;48.030;11.598;2024-03-08T04:55:47;-0.10;99.90
16513;DHT22;8369;48.030;11.598;2024-03-08T04:58:13;-0.10;99.90
16513;DHT22;8369;48.030;11.598;2024-03-08T05:00:38;-0.10;99.90
16513;DHT22;8369;48.030;11.598;2024-03-08T05:03:04;0.00;99.90
16513;DHT22;8369;48.030;11.598;2024-03-08T05:05:30;0.00;99.90
16513;DHT22;8369;48.030;11.598;2024-03-08T05:07:56;0.00;99.90
16513;DHT22;8369;48.030;11.598;2024-03-08T05:10:22;0.00;99.90
16513;DHT22;8369;48.030;11.598;2024-03-08T05:12:48;0.10;99.90
16513;DHT22;8369;48.030;11.598;2024-03-08T05:15:14;0.10;99.90
16513;DHT22;8369;48.030;11.598;2024-03-08T05:17:40;0.10;99.90
16513;DHT22;8369;48.030;11.598;2024-03-08T05:20:06;0.20;99.90
16513;DHT22;8369;48.030;11.598;2024-03-08T05:22:37;0.20;99.90
16513;DHT22;8369;48.030;11.598;2024-03-08T05:25:03;0.20;99.90
16513;DHT22;8369;48.030;11.598;2024-03-08T05:27:29;0.20;99.90
16513;DHT22;8369;48.030;11.598;2024-03-08T05:29:55;0.20;99.90
16513;DHT22;8369;48.030;11.598;2024-03-08T05:32:21;0.30;99.90
16513;DHT22;8369;48.030;11.598;2024-03-08T05:34:48;0.30;99.90
16513;DHT22;8369;48.030;11.598;2024-03-08T05:37:13;0.40;99.90
16513;DHT22;8369;48.030;11.598;2024-03-08T05:39:39;0.40;99.90
16513;DHT22;8369;48.030;11.598;2024-03-08T05:42:06;0.40;99.90
16513;DHT22;8369;48.030;11.598;2024-03-08T05:44:34;0.40;99.90
16513;DHT22;8369;48.030;11.598;2024-03-08T05:46:59;0.40;99.90
16513;DHT22;8369;48.030;11.598;2024-03-08T05:49:26;0.40;99.90
16513;DHT22;8369;48.030;11.598;2024-03-08T05:51:52;0.40;99.90
16513;DHT22;8369;48.030;11.598;2024-03-08T05:54:19;0.50;99.90
16513;DHT22;8369;48.030;11.598;2024-03-08T05:56:47;0.50;99.90
16513;DHT22;8369;48.030;11.598;2024-03-08T05:59:13;0.50;99.90
16513;DHT22;8369;48.030;11.598;2024-03-08T06:01:39;0.60;99.90
16513;DHT22;8369;48.030;11.598;2024-03-08T06:04:06;0.60;99.90
16513;DHT22;8369;48.030;11.598;2024-03-08T06:06:32;0.60;99.90
16513;DHT22;8369;48.030;11.598;2024-03-08T06:08:58;0.60;99.90
16513;DHT22;8369;48.030;11.598;2024-03-08T06:11:25;0.60;99.90
16513;DHT22;8369;48.030;11.598;2024-03-08T06:13:53;0.60;99.90
16513;DHT22;8369;48.030;11.598;2024-03-08T06:16:25;0.60;99.90
16513;DHT22;8369;48.030;11.598;2024-03-08T06:18:57;0.70;99.90
16513;DHT22;8369;48.030;11.598;2024-03-08T06:21:26;0.70;99.90
16513;DHT22;8369;48.030;11.598;2024-03-08T06:23:55;0.70;99.90
16513;DHT22;8369;48.030;11.598;2024-03-08T06:26:26;0.70;99.90
16513;DHT22;8369;48.030;11.598;2024-03-08T06:28:54;0.80;99.90
16513;DHT22;8369;48.030;11.598;2024-03-08T06:31:20;0.80;99.90
16513;DHT22;8369;48.030;11.598;2024-03-08T06:33:46;0.80;99.90
16513;DHT22;8369;48.030;11.598;2024-03-08T06:36:16;0.80;99.90
16513;DHT22;8369;48.030;11.598;2024-03-08T06:38:45;0.90;99.90
16513;DHT22;8369;48.030;11.598;2024-03-08T06:41:11;0.90;99.90
16513;DHT22;8369;48.030;11.598;2024-03-08T06:43:44;0.90;99.90
16513;DHT22;8369;48.030;11.598;2024-03-08T06:46:10;1.00;99.90
16513;DHT22;8369;48.030;11.598;2024-03-08T06:48:41;0.90;99.90
16513;DHT22;8369;48.030;11.598;2024-03-08T06:51:06;1.00;99.90
16513;DHT22;8369;48.030;11.598;2024-03-08T06:53:32;1.00;99.90
16513;DHT22;8369;48.030;11.598;2024-03-08T06:55:58;1.00;99.90
16513;DHT22;8369;48.030;11.598;2024-03-08T06:58:24;1.00;99.90
16513;DHT22;8369;48.030;11.598;2024-03-08T07:00:50;1.00;99.90
16513;DHT22;8369;48.030;11.598;2024-03-08T07:03:18;1.10;99.90
16513;DHT22;8369;48.030;11.598;2024-03-08T07:05:44;1.10;99.90
16513;DHT22;8369;48.030;11.598;2024-03-08T07:08:10;1.20;99.90
16513;DHT22;8369;48.030;11.598;2024-03-08T07:10:36;1.20;99.90
16513;DHT22;8369;48.030;11.598;2024-03-08T07:13:03;1.30;99.90
16513;DHT22;8369;48.030;11.598;2024-03-08T07:15:28;1.30;99.90
16513;DHT22;8369;48.030;11.598;2024-03-08T07:17:55;1.30;99.90
16513;DHT22;8369;48.030;11.598;2024-03-08T07:20:21;1.30;99.90
16513;DHT22;8369;48.030;11.598;2024-03-08T07:22:47;1.30;99.90
16513;DHT22;8369;48.030;11.598;2024-03-08T07:25:14;1.30;99.90
16513;DHT22;8369;48.030;11.598;2024-03-08T07:27:51;1.40;99.90
16513;DHT22;8369;48.030;11.598;2024-03-08T07:30:18;1.40;99.90
16513;DHT22;8369;48.030;11.598;2024-03-08T07:33:03;1.40;99.90
16513;DHT22;8369;48.030;11.598;2024-03-08T07:35:29;1.40;99.90
16513;DHT22;8369;48.030;11.598;2024-03-08T07:37:55;1.50;99.90
16513;DHT22;8369;48.030;11.598;2024-03-08T07:40:21;1.50;99.90
16513;DHT22;8369;48.030;11.598;2024-03-08T07:42:48;1.50;99.90
16513;DHT22;8369;48.030;11.598;2024-03-08T07:45:14;1.50;99.90
16513;DHT22;8369;48.030;11.598;2024-03-08T07:47:42;1.60;99.90
16513;DHT22;8369;48.030;11.598;2024-03-08T07:50:08;1.60;99.90
16513;DHT22;8369;48.030;11.598;2024-03-08T07:52:34;1.70;99.90
16513;DHT22;8369;48.030;11.598;2024-03-08T07:55:01;1.70;99.90
16513;DHT22;8369;48.030;11.598;2024-03-08T07:57:27;1.70;99.90
16513;DHT22;8369;48.030;11.598;2024-03-08T07:59:53;1.70;99.90
16513;DHT22;8369;48.030;11.598;2024-03-08T08:02:19;1.70;99.90
16513;DHT22;8369;48.030;11.598;2024-03-08T08:04:44;1.80;99.90
16513;DHT22;8369;48.030;11.598;2024-03-08T08:07:10;1.90;99.90
16513;DHT22;8369;48.030;11.598;2024-03-08T08:09:37;1.90;99.90
16513;DHT22;8369;48.030;11.598;2024-03-08T08:12:03;1.90;99.90
16513;DHT22;8369;48.030;11.598;2024-03-08T08:14:30;2.00;99.90
16513;DHT22;8369;48.030;11.598;2024-03-08T08:16:57;2.00;99.90
16513;DHT22;8369;48.030;11.598;2024-03-08T08:19:23;2.00;99.90
16513;DHT22;8369;48.030;11.598;2024-03-08T08:21:51;2.00;99.90
16513;DHT22;8369;48.030;11.598;2024-03-08T08:24:17;2.10;99.90
16513;DHT22;8369;48.030;11.598;2024-03-08T08:26:43;2.10;99.90
16513;DHT22;8369;48.030;11.598;2024-03-08T08:29:09;2.20;99.90
16513;DHT22;8369;48.030;11.598;2024-03-08T08:31:35;2.20;99.90
16513;DHT22;8369;48.030;11.598;2024-03-08T08:34:02;2.30;99.90
16513;DHT22;8369;48.030;11.598;2024-03-08T08:36:28;2.30;99.90
16513;DHT22;8369;48.030;11.598;2024-03-08T08:38:55;2.30;99.90
16513;DHT22;8369;48.030;11.598;2024-03-08T08:41:24;2.40;99.90
16513;DHT22;8369;48.030;11.598;2024-03-08T08:43:49;2.50;99.90
16513;DHT22;8369;48.030;11.598;2024-03-08T08:46:19;2.50;99.90
16513;DHT22;8369;48.030;11.598;2024-03-08T08:48:44;2.50;99.90
16513;DHT22;8369;48.030;11.598;2024-03-08T08:51:13;2.60;99.90
16513;DHT22;8369;48.030;11.598;2024-03-08T08:53:40;2.60;99.90
16513;DHT22;8369;48.030;11.598;2024-03-08T08:56:14;2.70;99.90
16513;DHT22;8369;48.030;11.598;2024-03-08T08:58:44;2.80;99.90
16513;DHT22;8369;48.030;11.598;2024-03-08T09:01:10;2.90;99.90
16513;DHT22;8369;48.030;11.598;2024-03-08T09:03:37;3.00;99.90
16513;DHT22;8369;48.030;11.598;2024-03-08T09:06:04;3.00;99.90
16513;DHT22;8369;48.030;11.598;2024-03-08T09:08:30;3.10;99.90
16513;DHT22;8369;48.030;11.598;2024-03-08T09:10:56;3.20;99.90
16513;DHT22;8369;48.030;11.598;2024-03-08T09:13:22;3.30;99.90
16513;DHT22;8369;48.030;11.598;2024-03-08T09:15:48;3.40;99.90
16513;DHT22;8369;48.030;11.598;2024-03-08T09:18:14;3.40;99.90
16513;DHT22;8369;48.030;11.598;2024-03-08T09:20:40;3.50;99.90
16513;DHT22;8369;48.030;11.598;2024-03-08T09:23:06;3.70;99.90
16513;DHT22;8369;48.030;11.598;2024-03-08T09:25:34;3.90;99.90
16513;DHT22;8369;48.030;11.598;2024-03-08T09:27:59;4.00;99.90
16513;DHT22;8369;48.030;11.598;2024-03-08T09:30:25;4.20;99.90
16513;DHT22;8369;48.030;11.598;2024-03-08T09:32:51;4.30;99.90
16513;DHT22;8369;48.030;11.598;2024-03-08T09:35:17;4.50;99.90
16513;DHT22;8369;48.030;11.598;2024-03-08T09:37:43;4.70;99.90
16513;DHT22;8369;48.030;11.598;2024-03-08T09:40:09;4.80;99.90
16513;DHT22;8369;48.030;11.598;2024-03-08T09:42:36;4.90;99.90
16513;DHT22;8369;48.030;11.598;2024-03-08T09:45:09;5.00;99.90
16513;DHT22;8369;48.030;11.598;2024-03-08T09:47:43;5.10;99.90
16513;DHT22;8369;48.030;11.598;2024-03-08T09:50:10;5.20;99.90
16513;DHT22;8369;48.030;11.598;2024-03-08T09:52:42;5.30;99.90
16513;DHT22;8369;48.030;11.598;2024-03-08T09:55:10;5.40;99.90
16513;DHT22;8369;48.030;11.598;2024-03-08T09:57:39;5.50;99.90
16513;DHT22;8369;48.030;11.598;2024-03-08T10:00:06;5.50;99.90
16513;DHT22;8369;48.030;11.598;2024-03-08T10:02:50;5.60;99.90
16513;DHT22;8369;48.030;11.598;2024-03-08T10:05:18;5.60;99.90
16513;DHT22;8369;48.030;11.598;2024-03-08T10:07:44;5.60;99.90
16513;DHT22;8369;48.030;11.598;2024-03-08T10:10:10;5.60;99.90
16513;DHT22;8369;48.030;11.598;2024-03-08T10:12:38;5.60;99.90
16513;DHT22;8369;48.030;11.598;2024-03-08T10:15:08;5.70;99.90
16513;DHT22;8369;48.030;11.598;2024-03-08T10:17:36;5.80;99.90
16513;DHT22;8369;48.030;11.598;2024-03-08T10:20:02;5.90;99.90
16513;DHT22;8369;48.030;11.598;2024-03-08T10:22:30;6.00;99.90
16513;DHT22;8369;48.030;11.598;2024-03-08T10:24:57;6.10;99.90
16513;DHT22;8369;48.030;11.598;2024-03-08T10:27:23;6.20;99.90
16513;DHT22;8369;48.030;11.598;2024-03-08T10:29:51;6.20;99.90
16513;DHT22;8369;48.030;11.598;2024-03-08T10:32:17;6.30;99.90
16513;DHT22;8369;48.030;11.598;2024-03-08T10:34:43;6.30;99.90
16513;DHT22;8369;48.030;11.598;2024-03-08T10:37:15;6.40;99.90
16513;DHT22;8369;48.030;11.598;2024-03-08T10:39:48;6.50;99.90
16513;DHT22;8369;48.030;11.598;2024-03-08T10:42:22;6.60;99.90
16513;DHT22;8369;48.030;11.598;2024-03-08T10:45:03;6.70;99.90
16513;DHT22;8369;48.030;11.598;2024-03-08T10:47:34;6.80;99.90
16513;DHT22;8369;48.030;11.598;2024-03-08T10:50:18;6.90;99.90
16513;DHT22;8369;48.030;11.598;2024-03-08T10:52:49;6.90;99.90
16513;DHT22;8369;48.030;11.598;2024-03-08T10:55:17;7.00;99.90
16513;DHT22;8369;48.030;11.598;2024-03-08T10:57:43;7.00;99.90
16513;DHT22;8369;48.030;11.598;2024-03-08T11:00:12;7.10;99.90
16513;DHT22;8369;48.030;11.598;2024-03-08T11:02:38;7.20;99.90
16513;DHT22;8369;48.030;11.598;2024-03-08T11:05:04;7.20;99.90
16513;DHT22;8369;48.030;11.598;2024-03-08T11:07:35;7.30;99.90
16513;DHT22;8369;48.030;11.598;2024-03-08T11:10:04;7.40;99.90
16513;DHT22;8369;48.030;11.598;2024-03-08T11:12:36;7.50;99.90
16513;DHT22;8369;48.030;11.598;2024-03-08T11:15:12;7.60;99.90
16513;DHT22;8369;48.030;11.598;2024-03-08T11:17:48;7.60;99.90
16513;DHT22;8369;48.030;11.598;2024-03-08T11:20:16;7.60;99.90
16513;DHT22;8369;48.030;11.598;2024-03-08T11:22:59;7.70;99.90
16513;DHT22;8369;48.030;11.598;2024-03-08T11:25:42;7.80;99.90
16513;DHT22;8369;48.030;11.598;2024-03-08T11:33:26;8.00;99.90
16513;DHT22;8369;48.030;11.598;2024-03-08T11:35:53;8.10;99.90
16513;DHT22;8369;48.030;11.598;2024-03-08T11:38:23;8.10;99.90
16513;DHT22;8369;48.030;11.598;2024-03-08T11:40:50;8.20;99.90
16513;DHT22;8369;48.030;11.598;2024-03-08T11:43:16;8.20;99.90
16513;DHT22;8369;48.030;11.598;2024-03-08T11:45:42;8.30;99.90
16513;DHT22;8369;48.030;11.598;2024-03-08T11:48:08;8.30;99.90
16513;DHT22;8369;48.030;11.598;2024-03-08T11:50:34;8.40;99.90
16513;DHT22;8369;48.030;11.598;2024-03-08T11:53:03;8.40;99.90
16513;DHT22;8369;48.030;11.598;2024-03-08T11:55:31;8.50;99.90
16513;DHT22;8369;48.030;11.598;2024-03-08T11:58:02;8.50;99.90
16513;DHT22;8369;48.030;11.598;2024-03-08T12:00:29;8.60;99.90
16513;DHT22;8369;48.030;11.598;2024-03-08T12:03:07;8.60;99.90
16513;DHT22;8369;48.030;11.598;2024-03-08T12:05:35;8.70;99.90
16513;DHT22;8369;48.030;11.598;2024-03-08T12:08:05;8.70;99.90
16513;DHT22;8369;48.030;11.598;2024-03-08T12:10:32;8.80;99.90
16513;DHT22;8369;48.030;11.598;2024-03-08T12:12:59;8.80;99.90
16513;DHT22;8369;48.030;11.598;2024-03-08T12:15:25;8.90;99.90
16513;DHT22;8369;48.030;11.598;2024-03-08T12:17:52;8.90;99.90
16513;DHT22;8369;48.030;11.598;2024-03-08T12:20:20;8.90;99.90
16513;DHT22;8369;48.030;11.598;2024-03-08T12:22:51;9.00;99.90
16513;DHT22;8369;48.030;11.598;2024-03-08T12:25:19;9.00;99.90
16513;DHT22;8369;48.030;11.598;2024-03-08T12:27:46;9.00;99.90
16513;DHT22;8369;48.030;11.598;2024-03-08T12:30:25;9.00;99.90
16513;DHT22;8369;48.030;11.598;2024-03-08T12:32:59;9.00;99.90
16513;DHT22;8369;48.030;11.598;2024-03-08T12:35:27;9.10;99.90
16513;DHT22;8369;48.030;11.598;2024-03-08T12:37:58;9.10;99.90
16513;DHT22;8369;48.030;11.598;2024-03-08T12:40:32;9.10;99.90
16513;DHT22;8369;48.030;11.598;2024-03-08T12:43:00;9.10;99.90
16513;DHT22;8369;48.030;11.598;2024-03-08T12:45:27;9.10;99.90
16513;DHT22;8369;48.030;11.598;2024-03-08T12:47:53;9.10;99.90
16513;DHT22;8369;48.030;11.598;2024-03-08T12:50:21;9.10;99.90
16513;DHT22;8369;48.030;11.598;2024-03-08T12:52:47;9.10;99.90
16513;DHT22;8369;48.030;11.598;2024-03-08T12:55:14;9.20;99.90
16513;DHT22;8369;48.030;11.598;2024-03-08T12:57:42;9.20;99.90
16513;DHT22;8369;48.030;11.598;2024-03-08T13:00:08;9.30;99.90
16513;DHT22;8369;48.030;11.598;2024-03-08T13:02:48;9.30;99.90
16513;DHT22;8369;48.030;11.598;2024-03-08T13:05:17;9.30;99.90
16513;DHT22;8369;48.030;11.598;2024-03-08T13:07:43;9.40;99.90
16513;DHT22;8369;48.030;11.598;2024-03-08T13:10:14;9.40;99.90
16513;DHT22;8369;48.030;11.598;2024-03-08T13:12:44;9.40;99.90
16513;DHT22;8369;48.030;11.598;2024-03-08T13:15:10;9.30;99.90
16513;DHT22;8369;48.030;11.598;2024-03-08T13:17:40;9.40;99.90
16513;DHT22;8369;48.030;11.598;2024-03-08T13:20:08;9.30;99.90
16513;DHT22;8369;48.030;11.598;2024-03-08T13:22:35;9.30;99.90
16513;DHT22;8369;48.030;11.598;2024-03-08T13:25:01;9.30;99.90
16513;DHT22;8369;48.030;11.598;2024-03-08T13:27:30;9.30;99.90
16513;DHT22;8369;48.030;11.598;2024-03-08T13:29:56;9.30;99.90
16513;DHT22;8369;48.030;11.598;2024-03-08T13:32:21;9.30;99.90
16513;DHT22;8369;48.030;11.598;2024-03-08T13:34:47;9.30;99.90
16513;DHT22;8369;48.030;11.598;2024-03-08T13:37:14;9.30;99.90
16513;DHT22;8369;48.030;11.598;2024-03-08T13:39:41;9.30;99.90
16513;DHT22;8369;48.030;11.598;2024-03-08T13:42:18;9.30;99.90
16513;DHT22;8369;48.030;11.598;2024-03-08T13:44:46;9.30;99.90
16513;DHT22;8369;48.030;11.598;2024-03-08T13:47:16;9.30;99.90
16513;DHT22;8369;48.030;11.598;2024-03-08T13:49:43;9.30;99.90
16513;DHT22;8369;48.030;11.598;2024-03-08T13:52:10;9.30;99.90
16513;DHT22;8369;48.030;11.598;2024-03-08T13:54:36;9.30;99.90
16513;DHT22;8369;48.030;11.598;2024-03-08T13:57:04;9.30;99.90
16513;DHT22;8369;48.030;11.598;2024-03-08T13:59:31;9.30;99.90
16513;DHT22;8369;48.030;11.598;2024-03-08T14:01:59;9.30;99.90
16513;DHT22;8369;48.030;11.598;2024-03-08T14:04:25;9.40;99.90
16513;DHT22;8369;48.030;11.598;2024-03-08T14:06:52;9.40;99.90
16513;DHT22;8369;48.030;11.598;2024-03-08T14:09:25;9.40;99.90
16513;DHT22;8369;48.030;11.598;2024-03-08T14:11:55;9.40;99.90
16513;DHT22;8369;48.030;11.598;2024-03-08T14:14:22;9.40;99.90
16513;DHT22;8369;48.030;11.598;2024-03-08T14:16:51;9.40;99.90
16513;DHT22;8369;48.030;11.598;2024-03-08T14:19:19;9.40;99.90
16513;DHT22;8369;48.030;11.598;2024-03-08T14:21:45;9.40;99.90
16513;DHT22;8369;48.030;11.598;2024-03-08T14:24:11;9.40;99.90
16513;DHT22;8369;48.030;11.598;2024-03-08T14:26:36;9.40;99.90
16513;DHT22;8369;48.030;11.598;2024-03-08T14:29:04;9.40;99.90
16513;DHT22;8369;48.030;11.598;2024-03-08T14:31:31;9.40;99.90
16513;DHT22;8369;48.030;11.598;2024-03-08T14:33:57;9.40;99.90
16513;DHT22;8369;48.030;11.598;2024-03-08T14:36:23;9.40;99.90
16513;DHT22;8369;48.030;11.598;2024-03-08T14:38:51;9.40;99.90
16513;DHT22;8369;48.030;11.598;2024-03-08T14:41:18;9.30;99.90
16513;DHT22;8369;48.030;11.598;2024-03-08T14:43:44;9.30;99.90
16513;DHT22;8369;48.030;11.598;2024-03-08T14:46:19;9.30;99.90
16513;DHT22;8369;48.030;11.598;2024-03-08T14:48:49;9.20;99.90
16513;DHT22;8369;48.030;11.598;2024-03-08T14:51:18;9.20;99.90
16513;DHT22;8369;48.030;11.598;2024-03-08T14:53:49;9.20;99.90
16513;DHT22;8369;48.030;11.598;2024-03-08T14:56:15;9.20;99.90
16513;DHT22;8369;48.030;11.598;2024-03-08T14:58:44;9.20;99.90
16513;DHT22;8369;48.030;11.598;2024-03-08T15:01:12;9.20;99.90
16513;DHT22;8369;48.030;11.598;2024-03-08T15:03:43;9.20;99.90
16513;DHT22;8369;48.030;11.598;2024-03-08T15:06:10;9.20;99.90
16513;DHT22;8369;48.030;11.598;2024-03-08T15:08:39;9.10;99.90
16513;DHT22;8369;48.030;11.598;2024-03-08T15:11:06;9.10;99.90
16513;DHT22;8369;48.030;11.598;2024-03-08T15:13:32;9.10;99.90
16513;DHT22;8369;48.030;11.598;2024-03-08T15:16:10;9.10;99.90
16513;DHT22;8369;48.030;11.598;2024-03-08T15:18:42;9.00;99.90
16513;DHT22;8369;48.030;11.598;2024-03-08T15:21:13;9.00;99.90
16513;DHT22;8369;48.030;11.598;2024-03-08T15:23:43;9.00;99.90
16513;DHT22;8369;48.030;11.598;2024-03-08T15:26:18;9.00;99.90
16513;DHT22;8369;48.030;11.598;2024-03-08T15:29:01;9.00;99.90
16513;DHT22;8369;48.030;11.598;2024-03-08T15:31:26;8.90;99.90
16513;DHT22;8369;48.030;11.598;2024-03-08T15:33:53;8.90;99.90
16513;DHT22;8369;48.030;11.598;2024-03-08T15:36:29;8.90;99.90
16513;DHT22;8369;48.030;11.598;2024-03-08T15:38:59;8.90;99.90
16513;DHT22;8369;48.030;11.598;2024-03-08T15:41:26;8.90;99.90
16513;DHT22;8369;48.030;11.598;2024-03-08T15:43:52;8.90;99.90
16513;DHT22;8369;48.030;11.598;2024-03-08T15:46:18;8.80;99.90
16513;DHT22;8369;48.030;11.598;2024-03-08T15:48:48;8.70;99.90
16513;DHT22;8369;48.030;11.598;2024-03-08T15:51:15;8.70;99.90
16513;DHT22;8369;48.030;11.598;2024-03-08T15:53:43;8.70;99.90